sensor_id;sensor_type;location;lat;lon;timestamp;P1;durP1;ratioP1;P2;durP2;ratioP2
24439;SDS011;12618;54.386;18.394;2022-09-27T00:01:39;18.00;;;13.13;;
24439;SDS011;12618;54.386;18.394;2022-09-27T00:04:10;14.93;;;12.00;;
24439;SDS011;12618;54.386;18.394;2022-09-27T00:06:41;13.72;;;11.28;;
24439;SDS011;12618;54.386;18.394;2022-09-27T00:09:11;14.00;;;11.12;;
24439;SDS011;12618;54.386;18.394;2022-09-27T00:11:42;12.90;;;9.63;;
24439;SDS011;12618;54.386;18.394;2022-09-27T00:14:13;13.40;;;10.40;;
24439;SDS011;12618;54.386;18.394;2022-09-27T00:16:43;12.47;;;10.15;;
24439;SDS011;12618;54.386;18.394;2022-09-27T00:19:15;16.17;;;12.07;;
24439;SDS011;12618;54.386;18.394;2022-09-27T00:21:46;12.05;;;9.83;;
24439;SDS011;12618;54.386;18.394;2022-09-27T00:24:21;13.20;;;9.28;;
24439;SDS011;12618;54.386;18.394;2022-09-27T00:26:49;13.95;;;11.10;;
24439;SDS011;12618;54.386;18.394;2022-09-27T00:29:20;12.35;;;10.05;;
24439;SDS011;12618;54.386;18.394;2022-09-27T00:31:50;14.55;;;10.08;;
24439;SDS011;12618;54.386;18.394;2022-09-27T00:34:22;12.35;;;9.93;;
24439;SDS011;12618;54.386;18.394;2022-09-27T00:36:52;12.23;;;9.25;;
24439;SDS011;12618;54.386;18.394;2022-09-27T00:39:24;12.63;;;9.73;;
24439;SDS011;12618;54.386;18.394;2022-09-27T00:41:55;13.43;;;10.18;;
24439;SDS011;12618;54.386;18.394;2022-09-27T00:46:59;18.12;;;14.43;;
24439;SDS011;12618;54.386;18.394;2022-09-27T00:49:31;13.38;;;10.55;;
24439;SDS011;12618;54.386;18.394;2022-09-27T00:52:07;16.30;;;12.00;;
24439;SDS011;12618;54.386;18.394;2022-09-27T00:54:38;16.48;;;11.85;;
24439;SDS011;12618;54.386;18.394;2022-09-27T00:57:10;15.80;;;11.00;;
24439;SDS011;12618;54.386;18.394;2022-09-27T00:59:43;11.65;;;9.25;;
24439;SDS011;12618;54.386;18.394;2022-09-27T01:02:13;15.23;;;10.13;;
24439;SDS011;12618;54.386;18.394;2022-09-27T01:04:44;13.48;;;9.80;;
24439;SDS011;12618;54.386;18.394;2022-09-27T01:07:15;12.43;;;9.55;;
24439;SDS011;12618;54.386;18.394;2022-09-27T01:09:45;14.43;;;9.95;;
24439;SDS011;12618;54.386;18.394;2022-09-27T01:22:41;17.55;;;11.33;;
24439;SDS011;12618;54.386;18.394;2022-09-27T01:25:15;14.60;;;10.28;;
24439;SDS011;12618;54.386;18.394;2022-09-27T01:30:29;23.95;;;10.88;;
24439;SDS011;12618;54.386;18.394;2022-09-27T01:43:31;11.45;;;8.65;;
24439;SDS011;12618;54.386;18.394;2022-09-27T01:46:07;12.75;;;9.20;;
24439;SDS011;12618;54.386;18.394;2022-09-27T01:48:42;11.65;;;8.55;;
24439;SDS011;12618;54.386;18.394;2022-09-27T01:51:15;10.18;;;8.35;;
24439;SDS011;12618;54.386;18.394;2022-09-27T01:53:46;10.98;;;8.60;;
24439;SDS011;12618;54.386;18.394;2022-09-27T01:56:25;10.40;;;8.30;;
24439;SDS011;12618;54.386;18.394;2022-09-27T01:59:04;11.57;;;8.35;;
24439;SDS011;12618;54.386;18.394;2022-09-27T02:01:34;12.68;;;8.80;;
24439;SDS011;12618;54.386;18.394;2022-09-27T02:04:07;11.78;;;8.48;;
24439;SDS011;12618;54.386;18.394;2022-09-27T02:06:42;11.03;;;8.20;;
24439;SDS011;12618;54.386;18.394;2022-09-27T02:09:17;9.33;;;7.50;;
24439;SDS011;12618;54.386;18.394;2022-09-27T02:11:49;10.80;;;7.75;;
24439;SDS011;12618;54.386;18.394;2022-09-27T02:14:25;12.37;;;8.58;;
24439;SDS011;12618;54.386;18.394;2022-09-27T02:17:05;12.75;;;9.28;;
24439;SDS011;12618;54.386;18.394;2022-09-27T02:22:17;11.55;;;9.88;;
24439;SDS011;12618;54.386;18.394;2022-09-27T02:30:21;13.78;;;10.58;;
24439;SDS011;12618;54.386;18.394;2022-09-27T02:32:52;13.08;;;10.35;;
24439;SDS011;12618;54.386;18.394;2022-09-27T02:35:30;13.85;;;10.20;;
24439;SDS011;12618;54.386;18.394;2022-09-27T02:38:01;11.40;;;10.03;;
24439;SDS011;12618;54.386;18.394;2022-09-27T02:40:34;14.18;;;9.93;;
24439;SDS011;12618;54.386;18.394;2022-09-27T02:43:05;13.75;;;9.70;;
24439;SDS011;12618;54.386;18.394;2022-09-27T02:53:49;15.28;;;10.05;;
24439;SDS011;12618;54.386;18.394;2022-09-27T02:56:24;11.73;;;9.45;;
24439;SDS011;12618;54.386;18.394;2022-09-27T03:04:25;13.00;;;9.60;;
24439;SDS011;12618;54.386;18.394;2022-09-27T03:06:55;13.43;;;9.78;;
24439;SDS011;12618;54.386;18.394;2022-09-27T03:09:27;12.20;;;9.58;;
24439;SDS011;12618;54.386;18.394;2022-09-27T03:11:58;12.88;;;10.78;;
24439;SDS011;12618;54.386;18.394;2022-09-27T03:14:29;16.27;;;12.00;;
24439;SDS011;12618;54.386;18.394;2022-09-27T03:16:59;14.05;;;10.95;;
24439;SDS011;12618;54.386;18.394;2022-09-27T03:19:30;15.85;;;11.20;;
24439;SDS011;12618;54.386;18.394;2022-09-27T03:22:00;15.70;;;11.20;;
24439;SDS011;12618;54.386;18.394;2022-09-27T03:24:30;18.10;;;14.00;;
24439;SDS011;12618;54.386;18.394;2022-09-27T03:27:01;17.35;;;12.93;;
24439;SDS011;12618;54.386;18.394;2022-09-27T03:29:32;17.75;;;13.58;;
24439;SDS011;12618;54.386;18.394;2022-09-27T03:32:03;16.23;;;12.78;;
24439;SDS011;12618;54.386;18.394;2022-09-27T03:34:33;17.35;;;13.75;;
24439;SDS011;12618;54.386;18.394;2022-09-27T03:37:04;19.12;;;14.00;;
24439;SDS011;12618;54.386;18.394;2022-09-27T03:39:34;20.32;;;14.80;;
24439;SDS011;12618;54.386;18.394;2022-09-27T03:42:05;17.80;;;13.88;;
24439;SDS011;12618;54.386;18.394;2022-09-27T03:44:35;17.98;;;13.43;;
24439;SDS011;12618;54.386;18.394;2022-09-27T03:47:06;17.52;;;13.53;;
24439;SDS011;12618;54.386;18.394;2022-09-27T03:49:36;20.08;;;14.55;;
24439;SDS011;12618;54.386;18.394;2022-09-27T03:52:07;16.57;;;13.25;;
24439;SDS011;12618;54.386;18.394;2022-09-27T03:54:37;16.32;;;12.60;;
24439;SDS011;12618;54.386;18.394;2022-09-27T03:57:08;17.40;;;12.05;;
24439;SDS011;12618;54.386;18.394;2022-09-27T03:59:38;16.05;;;11.85;;
24439;SDS011;12618;54.386;18.394;2022-09-27T04:02:09;16.90;;;12.10;;
24439;SDS011;12618;54.386;18.394;2022-09-27T04:04:39;14.87;;;11.85;;
24439;SDS011;12618;54.386;18.394;2022-09-27T04:07:09;13.15;;;11.00;;
24439;SDS011;12618;54.386;18.394;2022-09-27T04:09:40;15.45;;;11.65;;
24439;SDS011;12618;54.386;18.394;2022-09-27T04:12:12;14.87;;;12.15;;
24439;SDS011;12618;54.386;18.394;2022-09-27T04:14:42;17.10;;;12.68;;
24439;SDS011;12618;54.386;18.394;2022-09-27T04:17:13;20.17;;;14.60;;
24439;SDS011;12618;54.386;18.394;2022-09-27T04:19:43;17.73;;;13.62;;
24439;SDS011;12618;54.386;18.394;2022-09-27T04:22:13;17.98;;;13.43;;
24439;SDS011;12618;54.386;18.394;2022-09-27T04:24:44;17.87;;;12.65;;
24439;SDS011;12618;54.386;18.394;2022-09-27T04:27:15;16.27;;;12.43;;
24439;SDS011;12618;54.386;18.394;2022-09-27T04:29:46;17.35;;;12.70;;
24439;SDS011;12618;54.386;18.394;2022-09-27T04:32:16;16.05;;;11.68;;
24439;SDS011;12618;54.386;18.394;2022-09-27T04:34:47;15.10;;;11.28;;
24439;SDS011;12618;54.386;18.394;2022-09-27T04:37:35;19.85;;;11.30;;
24439;SDS011;12618;54.386;18.394;2022-09-27T04:40:07;17.45;;;12.63;;
24439;SDS011;12618;54.386;18.394;2022-09-27T04:42:38;15.03;;;12.40;;
24439;SDS011;12618;54.386;18.394;2022-09-27T04:45:08;17.20;;;12.15;;
24439;SDS011;12618;54.386;18.394;2022-09-27T04:47:45;16.48;;;12.20;;
24439;SDS011;12618;54.386;18.394;2022-09-27T04:50:16;15.95;;;11.78;;
24439;SDS011;12618;54.386;18.394;2022-09-27T04:52:50;15.78;;;11.80;;
24439;SDS011;12618;54.386;18.394;2022-09-27T04:55:21;18.62;;;12.03;;
24439;SDS011;12618;54.386;18.394;2022-09-27T04:57:51;13.00;;;11.15;;
24439;SDS011;12618;54.386;18.394;2022-09-27T05:00:22;13.83;;;11.55;;
24439;SDS011;12618;54.386;18.394;2022-09-27T05:02:52;14.30;;;11.18;;
24439;SDS011;12618;54.386;18.394;2022-09-27T05:05:23;17.40;;;11.35;;
24439;SDS011;12618;54.386;18.394;2022-09-27T05:07:53;16.75;;;10.95;;
24439;SDS011;12618;54.386;18.394;2022-09-27T05:10:24;13.45;;;11.18;;
24439;SDS011;12618;54.386;18.394;2022-09-27T05:12:55;13.75;;;10.90;;
24439;SDS011;12618;54.386;18.394;2022-09-27T05:15:25;19.02;;;11.70;;
24439;SDS011;12618;54.386;18.394;2022-09-27T05:17:56;13.95;;;11.70;;
24439;SDS011;12618;54.386;18.394;2022-09-27T05:20:28;13.28;;;11.33;;
24439;SDS011;12618;54.386;18.394;2022-09-27T05:22:59;15.72;;;11.57;;
24439;SDS011;12618;54.386;18.394;2022-09-27T05:25:31;14.95;;;11.48;;
24439;SDS011;12618;54.386;18.394;2022-09-27T05:28:02;14.33;;;11.78;;
24439;SDS011;12618;54.386;18.394;2022-09-27T05:30:32;15.45;;;11.15;;
24439;SDS011;12618;54.386;18.394;2022-09-27T05:33:03;20.82;;;11.65;;
24439;SDS011;12618;54.386;18.394;2022-09-27T05:35:34;17.12;;;11.70;;
24439;SDS011;12618;54.386;18.394;2022-09-27T05:38:05;19.15;;;12.75;;
24439;SDS011;12618;54.386;18.394;2022-09-27T05:40:35;14.53;;;12.10;;
24439;SDS011;12618;54.386;18.394;2022-09-27T05:43:06;16.93;;;12.43;;
24439;SDS011;12618;54.386;18.394;2022-09-27T05:45:36;18.95;;;14.68;;
24439;SDS011;12618;54.386;18.394;2022-09-27T05:48:07;16.50;;;13.05;;
24439;SDS011;12618;54.386;18.394;2022-09-27T05:50:38;21.02;;;15.55;;
24439;SDS011;12618;54.386;18.394;2022-09-27T05:53:09;19.65;;;14.55;;
24439;SDS011;12618;54.386;18.394;2022-09-27T05:55:40;21.15;;;14.73;;
24439;SDS011;12618;54.386;18.394;2022-09-27T05:58:13;18.60;;;13.98;;
24439;SDS011;12618;54.386;18.394;2022-09-27T06:00:45;18.45;;;14.90;;
24439;SDS011;12618;54.386;18.394;2022-09-27T06:03:16;20.12;;;15.50;;
24439;SDS011;12618;54.386;18.394;2022-09-27T06:05:46;18.50;;;14.90;;
24439;SDS011;12618;54.386;18.394;2022-09-27T06:08:17;19.77;;;14.65;;
24439;SDS011;12618;54.386;18.394;2022-09-27T06:10:49;18.27;;;14.55;;
24439;SDS011;12618;54.386;18.394;2022-09-27T06:13:20;22.62;;;15.65;;
24439;SDS011;12618;54.386;18.394;2022-09-27T06:15:51;21.23;;;15.72;;
24439;SDS011;12618;54.386;18.394;2022-09-27T06:18:22;22.80;;;15.75;;
24439;SDS011;12618;54.386;18.394;2022-09-27T06:20:52;19.27;;;14.98;;
24439;SDS011;12618;54.386;18.394;2022-09-27T06:23:22;19.15;;;14.93;;
24439;SDS011;12618;54.386;18.394;2022-09-27T06:25:53;22.42;;;15.60;;
24439;SDS011;12618;54.386;18.394;2022-09-27T06:28:24;22.58;;;16.70;;
24439;SDS011;12618;54.386;18.394;2022-09-27T06:30:54;23.50;;;17.45;;
24439;SDS011;12618;54.386;18.394;2022-09-27T06:33:25;22.15;;;16.65;;
24439;SDS011;12618;54.386;18.394;2022-09-27T06:35:59;24.92;;;17.77;;
24439;SDS011;12618;54.386;18.394;2022-09-27T06:38:29;21.75;;;17.20;;
24439;SDS011;12618;54.386;18.394;2022-09-27T06:41:04;24.50;;;17.23;;
24439;SDS011;12618;54.386;18.394;2022-09-27T06:43:32;25.20;;;18.17;;
24439;SDS011;12618;54.386;18.394;2022-09-27T06:46:03;19.92;;;16.30;;
24439;SDS011;12618;54.386;18.394;2022-09-27T06:48:35;23.15;;;17.48;;
24439;SDS011;12618;54.386;18.394;2022-09-27T06:51:08;19.62;;;16.12;;
24439;SDS011;12618;54.386;18.394;2022-09-27T06:53:38;19.87;;;15.90;;
24439;SDS011;12618;54.386;18.394;2022-09-27T06:56:09;24.25;;;17.98;;
24439;SDS011;12618;54.386;18.394;2022-09-27T06:58:39;19.60;;;15.48;;
24439;SDS011;12618;54.386;18.394;2022-09-27T07:01:28;22.35;;;17.92;;
24439;SDS011;12618;54.386;18.394;2022-09-27T07:03:59;19.80;;;17.15;;
24439;SDS011;12618;54.386;18.394;2022-09-27T07:06:29;19.23;;;16.27;;
24439;SDS011;12618;54.386;18.394;2022-09-27T07:09:00;17.20;;;14.90;;
24439;SDS011;12618;54.386;18.394;2022-09-27T07:11:30;17.50;;;14.47;;
24439;SDS011;12618;54.386;18.394;2022-09-27T07:14:03;20.80;;;16.10;;
24439;SDS011;12618;54.386;18.394;2022-09-27T07:16:37;26.40;;;16.70;;
24439;SDS011;12618;54.386;18.394;2022-09-27T07:19:07;19.90;;;16.37;;
24439;SDS011;12618;54.386;18.394;2022-09-27T07:21:40;18.57;;;15.95;;
24439;SDS011;12618;54.386;18.394;2022-09-27T07:24:10;19.42;;;17.27;;
24439;SDS011;12618;54.386;18.394;2022-09-27T07:26:42;17.67;;;15.53;;
24439;SDS011;12618;54.386;18.394;2022-09-27T07:29:12;19.98;;;16.85;;
24439;SDS011;12618;54.386;18.394;2022-09-27T07:31:42;19.75;;;17.00;;
24439;SDS011;12618;54.386;18.394;2022-09-27T07:34:13;21.23;;;18.12;;
24439;SDS011;12618;54.386;18.394;2022-09-27T07:36:46;17.87;;;15.63;;
24439;SDS011;12618;54.386;18.394;2022-09-27T07:39:20;20.45;;;17.15;;
24439;SDS011;12618;54.386;18.394;2022-09-27T07:41:50;19.27;;;17.00;;
24439;SDS011;12618;54.386;18.394;2022-09-27T07:44:21;22.27;;;18.45;;
24439;SDS011;12618;54.386;18.394;2022-09-27T07:46:52;21.55;;;18.20;;
24439;SDS011;12618;54.386;18.394;2022-09-27T07:49:22;22.30;;;19.35;;
24439;SDS011;12618;54.386;18.394;2022-09-27T07:51:53;22.00;;;19.12;;
24439;SDS011;12618;54.386;18.394;2022-09-27T07:54:23;21.52;;;18.20;;
24439;SDS011;12618;54.386;18.394;2022-09-27T07:56:54;20.85;;;17.67;;
24439;SDS011;12618;54.386;18.394;2022-09-27T07:59:25;22.05;;;19.52;;
24439;SDS011;12618;54.386;18.394;2022-09-27T08:01:55;21.42;;;18.70;;
24439;SDS011;12618;54.386;18.394;2022-09-27T08:04:26;23.22;;;18.50;;
24439;SDS011;12618;54.386;18.394;2022-09-27T08:06:56;24.95;;;20.48;;
24439;SDS011;12618;54.386;18.394;2022-09-27T08:09:27;23.60;;;19.90;;
24439;SDS011;12618;54.386;18.394;2022-09-27T08:11:57;23.30;;;19.37;;
24439;SDS011;12618;54.386;18.394;2022-09-27T08:14:28;27.70;;;22.67;;
24439;SDS011;12618;54.386;18.394;2022-09-27T08:16:58;26.60;;;21.23;;
24439;SDS011;12618;54.386;18.394;2022-09-27T08:19:29;30.37;;;23.22;;
24439;SDS011;12618;54.386;18.394;2022-09-27T08:21:59;27.65;;;22.75;;
24439;SDS011;12618;54.386;18.394;2022-09-27T08:24:30;27.82;;;22.40;;
24439;SDS011;12618;54.386;18.394;2022-09-27T08:27:01;62.88;;;24.77;;
24439;SDS011;12618;54.386;18.394;2022-09-27T08:29:36;29.07;;;22.67;;
24439;SDS011;12618;54.386;18.394;2022-09-27T08:32:04;34.18;;;25.55;;
24439;SDS011;12618;54.386;18.394;2022-09-27T08:34:36;29.52;;;23.62;;
24439;SDS011;12618;54.386;18.394;2022-09-27T08:37:06;30.20;;;23.73;;
24439;SDS011;12618;54.386;18.394;2022-09-27T08:39:37;33.08;;;24.43;;
24439;SDS011;12618;54.386;18.394;2022-09-27T08:45:02;30.70;;;24.43;;
24439;SDS011;12618;54.386;18.394;2022-09-27T08:47:42;30.75;;;23.83;;
24439;SDS011;12618;54.386;18.394;2022-09-27T08:53:02;29.85;;;23.77;;
24439;SDS011;12618;54.386;18.394;2022-09-27T08:55:36;32.83;;;25.95;;
24439;SDS011;12618;54.386;18.394;2022-09-27T08:58:12;28.38;;;23.60;;
24439;SDS011;12618;54.386;18.394;2022-09-27T09:00:43;30.60;;;24.27;;
24439;SDS011;12618;54.386;18.394;2022-09-27T09:03:18;30.08;;;24.02;;
24439;SDS011;12618;54.386;18.394;2022-09-27T09:08:27;33.13;;;25.62;;
24439;SDS011;12618;54.386;18.394;2022-09-27T09:22:05;33.60;;;25.95;;
24439;SDS011;12618;54.386;18.394;2022-09-27T09:27:17;33.02;;;26.10;;
24439;SDS011;12618;54.386;18.394;2022-09-27T09:29:54;31.70;;;24.85;;
24439;SDS011;12618;54.386;18.394;2022-09-27T09:35:23;35.75;;;28.07;;
24439;SDS011;12618;54.386;18.394;2022-09-27T09:37:59;32.60;;;25.45;;
24439;SDS011;12618;54.386;18.394;2022-09-27T09:45:55;25.43;;;20.52;;
24439;SDS011;12618;54.386;18.394;2022-09-27T09:48:35;27.80;;;22.87;;
24439;SDS011;12618;54.386;18.394;2022-09-27T09:51:05;25.85;;;21.27;;
24439;SDS011;12618;54.386;18.394;2022-09-27T09:53:44;21.52;;;18.50;;
24439;SDS011;12618;54.386;18.394;2022-09-27T09:56:30;22.40;;;19.07;;
24439;SDS011;12618;54.386;18.394;2022-09-27T09:59:03;24.85;;;20.20;;
24439;SDS011;12618;54.386;18.394;2022-09-27T10:01:42;19.62;;;17.52;;
24439;SDS011;12618;54.386;18.394;2022-09-27T10:04:28;19.98;;;17.37;;
24439;SDS011;12618;54.386;18.394;2022-09-27T10:06:45;19.27;;;17.15;;
24439;SDS011;12618;54.386;18.394;2022-09-27T10:09:16;19.50;;;17.15;;
24439;SDS011;12618;54.386;18.394;2022-09-27T10:11:49;19.50;;;16.62;;
24439;SDS011;12618;54.386;18.394;2022-09-27T10:14:20;17.10;;;15.00;;
24439;SDS011;12618;54.386;18.394;2022-09-27T10:16:55;14.75;;;13.20;;
24439;SDS011;12618;54.386;18.394;2022-09-27T10:19:27;17.48;;;14.75;;
24439;SDS011;12618;54.386;18.394;2022-09-27T10:22:09;17.25;;;15.15;;
24439;SDS011;12618;54.386;18.394;2022-09-27T10:25:09;15.85;;;14.25;;
24439;SDS011;12618;54.386;18.394;2022-09-27T10:27:12;17.57;;;14.53;;
24439;SDS011;12618;54.386;18.394;2022-09-27T10:29:43;16.42;;;14.63;;
24439;SDS011;12618;54.386;18.394;2022-09-27T10:32:19;18.03;;;14.60;;
24439;SDS011;12618;54.386;18.394;2022-09-27T10:34:46;16.42;;;13.35;;
24439;SDS011;12618;54.386;18.394;2022-09-27T10:37:19;16.30;;;14.03;;
24439;SDS011;12618;54.386;18.394;2022-09-27T10:39:49;21.57;;;13.72;;
24439;SDS011;12618;54.386;18.394;2022-09-27T10:42:35;16.48;;;14.60;;
24439;SDS011;12618;54.386;18.394;2022-09-27T10:47:57;17.02;;;15.23;;
24439;SDS011;12618;54.386;18.394;2022-09-27T10:50:29;18.62;;;15.83;;
24439;SDS011;12618;54.386;18.394;2022-09-27T10:53:05;17.40;;;15.18;;
24439;SDS011;12618;54.386;18.394;2022-09-27T10:55:33;19.27;;;15.80;;
24439;SDS011;12618;54.386;18.394;2022-09-27T10:58:04;19.92;;;16.35;;
24439;SDS011;12618;54.386;18.394;2022-09-27T11:00:35;17.10;;;14.60;;
24439;SDS011;12618;54.386;18.394;2022-09-27T11:03:11;17.07;;;15.25;;
24439;SDS011;12618;54.386;18.394;2022-09-27T11:05:39;17.98;;;15.43;;
24439;SDS011;12618;54.386;18.394;2022-09-27T11:13:36;17.95;;;15.65;;
24439;SDS011;12618;54.386;18.394;2022-09-27T11:16:19;18.52;;;15.45;;
24439;SDS011;12618;54.386;18.394;2022-09-27T11:26:59;16.23;;;13.83;;
24439;SDS011;12618;54.386;18.394;2022-09-27T11:43:00;18.55;;;15.58;;
24439;SDS011;12618;54.386;18.394;2022-09-27T11:56:22;24.25;;;14.07;;
24439;SDS011;12618;54.386;18.394;2022-09-27T12:01:37;18.00;;;14.18;;
24439;SDS011;12618;54.386;18.394;2022-09-27T12:04:18;18.65;;;14.15;;
24439;SDS011;12618;54.386;18.394;2022-09-27T12:09:22;14.85;;;12.25;;
24439;SDS011;12618;54.386;18.394;2022-09-27T12:11:57;13.75;;;12.30;;
24439;SDS011;12618;54.386;18.394;2022-09-27T12:17:11;14.87;;;12.90;;
24439;SDS011;12618;54.386;18.394;2022-09-27T12:19:44;13.43;;;11.85;;
24439;SDS011;12618;54.386;18.394;2022-09-27T12:22:22;12.10;;;10.65;;
24439;SDS011;12618;54.386;18.394;2022-09-27T12:24:52;12.18;;;10.98;;
24439;SDS011;12618;54.386;18.394;2022-09-27T12:28:08;16.32;;;13.08;;
24439;SDS011;12618;54.386;18.394;2022-09-27T12:29:59;14.55;;;11.53;;
24439;SDS011;12618;54.386;18.394;2022-09-27T12:32:48;11.38;;;10.18;;
24439;SDS011;12618;54.386;18.394;2022-09-27T12:37:48;15.30;;;12.27;;
24439;SDS011;12618;54.386;18.394;2022-09-27T12:40:24;14.25;;;12.75;;
24439;SDS011;12618;54.386;18.394;2022-09-27T12:53:28;17.10;;;14.45;;
24439;SDS011;12618;54.386;18.394;2022-09-27T12:56:08;16.02;;;14.35;;
24439;SDS011;12618;54.386;18.394;2022-09-27T12:58:47;17.73;;;14.90;;
24439;SDS011;12618;54.386;18.394;2022-09-27T13:06:42;17.52;;;15.32;;
24439;SDS011;12618;54.386;18.394;2022-09-27T13:14:34;17.92;;;15.90;;
24439;SDS011;12618;54.386;18.394;2022-09-27T13:17:52;19.70;;;15.83;;
24439;SDS011;12618;54.386;18.394;2022-09-27T13:19:43;21.75;;;17.32;;
24439;SDS011;12618;54.386;18.394;2022-09-27T13:24:44;18.73;;;16.73;;
24439;SDS011;12618;54.386;18.394;2022-09-27T13:32:29;19.42;;;16.73;;
24439;SDS011;12618;54.386;18.394;2022-09-27T13:35:10;22.35;;;18.95;;
24439;SDS011;12618;54.386;18.394;2022-09-27T13:37:46;24.30;;;21.00;;
24439;SDS011;12618;54.386;18.394;2022-09-27T13:45:29;23.22;;;20.72;;
24439;SDS011;12618;54.386;18.394;2022-09-27T13:47:59;25.88;;;20.48;;
24439;SDS011;12618;54.386;18.394;2022-09-27T13:55:54;20.65;;;18.20;;
24439;SDS011;12618;54.386;18.394;2022-09-27T14:01:02;21.25;;;17.10;;
24439;SDS011;12618;54.386;18.394;2022-09-27T14:03:33;19.85;;;17.37;;
24439;SDS011;12618;54.386;18.394;2022-09-27T14:06:05;19.57;;;16.70;;
24439;SDS011;12618;54.386;18.394;2022-09-27T14:08:42;20.17;;;17.45;;
24439;SDS011;12618;54.386;18.394;2022-09-27T14:11:12;18.50;;;16.50;;
24439;SDS011;12618;54.386;18.394;2022-09-27T14:13:44;20.02;;;17.92;;
24439;SDS011;12618;54.386;18.394;2022-09-27T14:16:16;22.07;;;18.05;;
24439;SDS011;12618;54.386;18.394;2022-09-27T14:18:48;19.37;;;16.80;;
24439;SDS011;12618;54.386;18.394;2022-09-27T14:21:29;20.83;;;16.03;;
24439;SDS011;12618;54.386;18.394;2022-09-27T14:23:52;21.15;;;18.20;;
24439;SDS011;12618;54.386;18.394;2022-09-27T14:26:26;20.60;;;18.40;;
24439;SDS011;12618;54.386;18.394;2022-09-27T14:28:55;23.87;;;19.95;;
24439;SDS011;12618;54.386;18.394;2022-09-27T14:31:25;25.05;;;18.52;;
24439;SDS011;12618;54.386;18.394;2022-09-27T14:34:06;20.20;;;17.92;;
24439;SDS011;12618;54.386;18.394;2022-09-27T14:36:40;19.30;;;17.20;;
24439;SDS011;12618;54.386;18.394;2022-09-27T14:39:31;26.97;;;18.55;;
24439;SDS011;12618;54.386;18.394;2022-09-27T14:44:35;20.80;;;18.00;;
24439;SDS011;12618;54.386;18.394;2022-09-27T14:47:06;23.40;;;17.65;;
24439;SDS011;12618;54.386;18.394;2022-09-27T14:49:44;21.07;;;17.75;;
24439;SDS011;12618;54.386;18.394;2022-09-27T14:52:14;21.85;;;18.48;;
24439;SDS011;12618;54.386;18.394;2022-09-27T14:54:42;19.70;;;17.20;;
24439;SDS011;12618;54.386;18.394;2022-09-27T14:57:15;19.85;;;17.75;;
24439;SDS011;12618;54.386;18.394;2022-09-27T14:59:46;19.00;;;16.20;;
24439;SDS011;12618;54.386;18.394;2022-09-27T15:02:18;19.87;;;16.90;;
24439;SDS011;12618;54.386;18.394;2022-09-27T15:04:50;21.05;;;17.92;;
24439;SDS011;12618;54.386;18.394;2022-09-27T15:07:21;19.98;;;16.82;;
24439;SDS011;12618;54.386;18.394;2022-09-27T15:09:54;23.87;;;18.60;;
24439;SDS011;12618;54.386;18.394;2022-09-27T15:12:25;20.32;;;18.07;;
24439;SDS011;12618;54.386;18.394;2022-09-27T15:14:56;19.85;;;17.67;;
24439;SDS011;12618;54.386;18.394;2022-09-27T15:17:27;24.98;;;17.62;;
24439;SDS011;12618;54.386;18.394;2022-09-27T15:20:02;24.87;;;19.50;;
24439;SDS011;12618;54.386;18.394;2022-09-27T15:22:34;21.95;;;18.10;;
24439;SDS011;12618;54.386;18.394;2022-09-27T15:25:10;24.75;;;19.50;;
24439;SDS011;12618;54.386;18.394;2022-09-27T15:27:38;22.20;;;19.30;;
24439;SDS011;12618;54.386;18.394;2022-09-27T15:30:14;22.42;;;18.45;;
24439;SDS011;12618;54.386;18.394;2022-09-27T15:32:40;21.30;;;18.40;;
24439;SDS011;12618;54.386;18.394;2022-09-27T15:35:14;22.37;;;19.35;;
24439;SDS011;12618;54.386;18.394;2022-09-27T15:37:45;26.82;;;21.27;;
24439;SDS011;12618;54.386;18.394;2022-09-27T15:42:55;26.65;;;21.82;;
24439;SDS011;12618;54.386;18.394;2022-09-27T15:45:32;24.27;;;21.17;;
24439;SDS011;12618;54.386;18.394;2022-09-27T15:48:13;27.00;;;22.27;;
24439;SDS011;12618;54.386;18.394;2022-09-27T15:50:43;24.37;;;21.55;;
24439;SDS011;12618;54.386;18.394;2022-09-27T15:56:09;25.12;;;20.97;;
24439;SDS011;12618;54.386;18.394;2022-09-27T15:58:38;26.48;;;21.80;;
24439;SDS011;12618;54.386;18.394;2022-09-27T16:01:24;25.25;;;21.52;;
24439;SDS011;12618;54.386;18.394;2022-09-27T16:03:59;25.57;;;22.22;;
24439;SDS011;12618;54.386;18.394;2022-09-27T16:09:19;24.70;;;21.05;;
24439;SDS011;12618;54.386;18.394;2022-09-27T16:11:57;28.95;;;24.02;;
24439;SDS011;12618;54.386;18.394;2022-09-27T16:14:27;28.45;;;23.85;;
24439;SDS011;12618;54.386;18.394;2022-09-27T16:16:58;27.02;;;22.07;;
24439;SDS011;12618;54.386;18.394;2022-09-27T16:19:29;25.92;;;22.15;;
24439;SDS011;12618;54.386;18.394;2022-09-27T16:21:59;26.52;;;22.80;;
24439;SDS011;12618;54.386;18.394;2022-09-27T16:24:31;30.48;;;22.90;;
24439;SDS011;12618;54.386;18.394;2022-09-27T16:27:02;32.03;;;25.20;;
24439;SDS011;12618;54.386;18.394;2022-09-27T16:29:34;27.20;;;22.58;;
24439;SDS011;12618;54.386;18.394;2022-09-27T16:32:04;30.92;;;25.17;;
24439;SDS011;12618;54.386;18.394;2022-09-27T16:34:36;31.33;;;23.38;;
24439;SDS011;12618;54.386;18.394;2022-09-27T16:37:07;29.02;;;22.58;;
24439;SDS011;12618;54.386;18.394;2022-09-27T16:39:39;27.37;;;22.20;;
24439;SDS011;12618;54.386;18.394;2022-09-27T16:42:09;31.55;;;24.43;;
24439;SDS011;12618;54.386;18.394;2022-09-27T16:44:45;25.23;;;21.12;;
24439;SDS011;12618;54.386;18.394;2022-09-27T16:47:13;32.13;;;22.87;;
24439;SDS011;12618;54.386;18.394;2022-09-27T16:49:43;52.40;;;24.00;;
24439;SDS011;12618;54.386;18.394;2022-09-27T16:52:32;29.92;;;23.02;;
24439;SDS011;12618;54.386;18.394;2022-09-27T16:55:03;27.70;;;22.13;;
24439;SDS011;12618;54.386;18.394;2022-09-27T16:57:35;31.02;;;24.20;;
24439;SDS011;12618;54.386;18.394;2022-09-27T17:00:07;30.57;;;23.75;;
24439;SDS011;12618;54.386;18.394;2022-09-27T17:02:38;28.80;;;23.25;;
24439;SDS011;12618;54.386;18.394;2022-09-27T17:05:09;30.00;;;24.63;;
24439;SDS011;12618;54.386;18.394;2022-09-27T17:07:40;27.98;;;22.90;;
24439;SDS011;12618;54.386;18.394;2022-09-27T17:10:11;28.67;;;23.83;;
24439;SDS011;12618;54.386;18.394;2022-09-27T17:12:42;31.20;;;24.77;;
24439;SDS011;12618;54.386;18.394;2022-09-27T17:15:13;30.55;;;23.45;;
24439;SDS011;12618;54.386;18.394;2022-09-27T17:17:47;29.25;;;24.18;;
24439;SDS011;12618;54.386;18.394;2022-09-27T17:20:18;29.85;;;24.12;;
24439;SDS011;12618;54.386;18.394;2022-09-27T17:22:49;30.72;;;25.20;;
24439;SDS011;12618;54.386;18.394;2022-09-27T17:25:19;30.60;;;25.70;;
24439;SDS011;12618;54.386;18.394;2022-09-27T17:27:50;29.72;;;24.23;;
24439;SDS011;12618;54.386;18.394;2022-09-27T17:30:20;31.40;;;26.17;;
24439;SDS011;12618;54.386;18.394;2022-09-27T17:32:50;32.00;;;25.23;;
24439;SDS011;12618;54.386;18.394;2022-09-27T17:35:21;35.13;;;26.55;;
24439;SDS011;12618;54.386;18.394;2022-09-27T17:37:51;30.62;;;24.80;;
24439;SDS011;12618;54.386;18.394;2022-09-27T17:40:22;33.28;;;24.82;;
24439;SDS011;12618;54.386;18.394;2022-09-27T17:42:52;30.70;;;25.08;;